createdAt,value
2019-04-07T00:00:11.825Z,63.72
2019-04-07T00:02:42.819Z,63.67
2019-04-07T00:05:14.820Z,63.71
2019-04-07T00:07:45.975Z,63.70
2019-04-07T00:10:17.010Z,63.79
2019-04-07T00:12:49.863Z,63.84
2019-04-07T00:15:20.923Z,63.96
2019-04-07T00:17:51.850Z,63.96
2019-04-07T00:20:23.946Z,64.06
2019-04-07T00:22:57.348Z,64.03
2019-04-07T00:25:28.762Z,64.08
2019-04-07T00:27:59.774Z,64.16
2019-04-07T00:30:30.835Z,64.30
2019-04-07T00:33:01.988Z,64.33
2019-04-07T00:35:33.620Z,64.45
2019-04-07T00:38:04.870Z,64.48
2019-04-07T00:40:37.084Z,64.52
2019-04-07T00:43:08.772Z,64.46
2019-04-07T00:45:40.517Z,64.48
2019-04-07T00:48:12.287Z,64.49
2019-04-07T00:50:43.704Z,64.67
2019-04-07T00:53:14.721Z,64.87
2019-04-07T00:55:45.721Z,64.92
2019-04-07T00:58:16.789Z,64.88
2019-04-07T01:00:50.408Z,64.90
2019-04-07T01:03:21.462Z,64.92
2019-04-07T01:05:52.544Z,64.87
2019-04-07T01:08:23.503Z,64.91
2019-04-07T01:10:54.562Z,65.17
2019-04-07T01:13:26.223Z,65.17
2019-04-07T01:15:57.421Z,65.07
2019-04-07T01:18:31.752Z,65.36
2019-04-07T01:21:03.862Z,65.82
2019-04-07T01:23:34.878Z,65.82
2019-04-07T01:26:06.410Z,66.19
2019-04-07T01:28:37.569Z,66.19
2019-04-07T01:31:08.799Z,66.20
2019-04-07T01:33:40.092Z,66.28
2019-04-07T01:36:11.293Z,66.13
2019-04-07T01:38:42.270Z,66.32
2019-04-07T01:41:15.273Z,66.01
2019-04-07T01:44:14.688Z,66.27
2019-04-07T01:46:56.830Z,66.27
2019-04-07T01:49:35.960Z,66.25
2019-04-07T01:52:08.727Z,66.25
2019-04-07T01:54:47.262Z,66.65
2019-04-07T01:57:20.178Z,66.74
2019-04-07T01:59:58.509Z,66.83
2019-04-07T02:02:45.509Z,66.59
2019-04-07T02:05:21.116Z,66.73
2019-04-07T02:07:56.780Z,66.62
2019-04-07T02:10:29.371Z,66.62
2019-04-07T02:13:02.154Z,66.75
2019-04-07T02:15:41.457Z,67.26
2019-04-07T02:18:14.801Z,67.26
2019-04-07T02:21:05.415Z,67.26
2019-04-07T02:23:53.625Z,67.27
2019-04-07T02:26:29.014Z,67.34
2019-04-07T02:29:18.071Z,67.48
2019-04-07T02:31:54.235Z,67.40
2019-04-07T02:34:33.854Z,67.61
2019-04-07T02:37:12.781Z,67.55
2019-04-07T02:39:48.822Z,67.35
2019-04-07T02:42:21.487Z,67.20
2019-04-07T02:45:10.996Z,67.44
2019-04-07T02:47:59.660Z,67.39
2019-04-07T02:50:35.243Z,67.44
2019-04-07T02:53:24.577Z,67.62
2019-04-07T02:56:13.508Z,67.74
2019-04-07T02:58:49.767Z,67.62
2019-04-07T03:01:26.349Z,68.19
2019-04-07T03:04:00.217Z,68.19
2019-04-07T03:06:52.534Z,68.28
2019-04-07T03:09:40.459Z,68.39
2019-04-07T03:12:18.971Z,68.94
2019-04-07T03:15:00.730Z,69.42
2019-04-07T03:17:49.826Z,69.09
2019-04-07T03:20:39.232Z,69.15
2019-04-07T03:23:27.265Z,68.93
2019-04-07T03:26:16.346Z,68.92
2019-04-07T03:28:52.609Z,68.57
2019-04-07T03:31:27.380Z,68.28
2019-04-07T03:34:09.756Z,68.27
2019-04-07T03:37:12.691Z,68.29
2019-04-07T03:39:22.294Z,68.50
2019-04-07T03:41:59.035Z,68.74
2019-04-07T03:44:34.790Z,68.74
2019-04-07T03:47:10.730Z,68.97
2019-04-07T03:49:49.669Z,68.83
2019-04-07T03:52:25.361Z,68.84
2019-04-07T03:54:58.880Z,69.30
2019-04-07T03:57:32.438Z,69.09
2019-04-07T04:00:26.155Z,69.42
2019-04-07T04:02:59.237Z,69.73
2019-04-07T04:05:39.444Z,69.83
2019-04-07T04:08:18.370Z,70.04
2019-04-07T04:10:53.890Z,70.01
2019-04-07T04:13:30.579Z,70.12
2019-04-07T04:16:03.438Z,70.27
2019-04-07T04:18:35.235Z,70.27
2019-04-07T04:21:07.023Z,70.14
2019-04-07T04:23:41.545Z,70.17
2019-04-07T04:26:10.951Z,70.17
2019-04-07T04:28:42.959Z,70.35
2019-04-07T04:31:15.483Z,70.05
2019-04-07T04:33:46.622Z,69.74
2019-04-07T04:36:17.839Z,69.67
2019-04-07T04:38:48.847Z,69.27
2019-04-07T04:41:20.913Z,68.91
2019-04-07T04:43:52.069Z,68.53
2019-04-07T04:46:26.627Z,68.53
2019-04-07T04:48:58.752Z,67.66
2019-04-07T04:51:36.981Z,67.66
2019-04-07T04:54:07.095Z,67.25
2019-04-07T04:56:39.516Z,66.66
2019-04-07T04:59:11.392Z,65.24
2019-04-07T05:01:45.130Z,65.24
2019-04-07T05:04:16.202Z,64.81
2019-04-07T05:06:49.094Z,64.10
2019-04-07T05:09:21.051Z,63.50
2019-04-07T05:11:52.825Z,62.76
2019-04-07T05:14:24.232Z,62.08
2019-04-07T05:16:56.477Z,61.32
2019-04-07T05:19:28.238Z,60.80
2019-04-07T05:21:59.864Z,59.96
2019-04-07T05:24:31.276Z,59.29
2019-04-07T05:27:03.113Z,58.82
2019-04-07T05:29:34.543Z,58.10
2019-04-07T05:32:05.770Z,57.65
2019-04-07T05:34:36.811Z,56.98
2019-04-07T05:37:08.716Z,56.30
2019-04-07T05:39:40.384Z,55.92
2019-04-07T05:42:12.429Z,55.24
2019-04-07T05:44:43.548Z,54.54
2019-04-07T05:47:15.593Z,53.99
2019-04-07T05:49:46.655Z,53.34
2019-04-07T05:52:18.101Z,52.86
2019-04-07T05:54:50.258Z,52.38
2019-04-07T05:57:22.250Z,51.78
2019-04-07T05:59:53.740Z,51.11
2019-04-07T06:02:27.327Z,50.50
2019-04-07T06:05:00.370Z,50.04
2019-04-07T06:07:51.477Z,49.60
2019-04-07T06:10:37.069Z,49.34
2019-04-07T06:13:12.940Z,48.95
2019-04-07T06:15:43.227Z,48.56
2019-04-07T06:18:15.323Z,48.13
2019-04-07T06:20:46.694Z,47.68
2019-04-07T06:23:22.102Z,47.33
2019-04-07T06:25:53.883Z,46.96
2019-04-07T06:28:26.614Z,46.43
2019-04-07T06:31:00.246Z,46.21
2019-04-07T06:33:30.775Z,45.73
2019-04-07T06:36:01.938Z,45.43
2019-04-07T06:38:34.872Z,45.25
2019-04-07T06:41:06.169Z,44.71
2019-04-07T06:43:39.829Z,44.41
2019-04-07T06:46:14.844Z,44.26
2019-04-07T06:49:08.912Z,43.95
2019-04-07T06:51:43.679Z,43.56
2019-04-07T06:54:33.001Z,43.56
2019-04-07T06:57:09.429Z,43.28
2019-04-07T06:59:45.700Z,42.91
2019-04-07T07:02:16.505Z,42.52
2019-04-07T07:04:57.177Z,42.03
2019-04-07T07:07:47.777Z,41.93
2019-04-07T07:10:26.867Z,42.00
2019-04-07T07:12:53.549Z,41.43
2019-04-07T07:15:26.779Z,40.90
2019-04-07T07:18:02.550Z,40.82
2019-04-07T07:20:47.371Z,40.64
2019-04-07T07:23:20.038Z,40.95
2019-04-07T07:25:51.901Z,41.01
2019-04-07T07:28:23.689Z,40.75
2019-04-07T07:30:55.626Z,40.36
2019-04-07T07:33:26.984Z,40.75
2019-04-07T07:35:58.320Z,40.69
2019-04-07T07:38:32.145Z,40.31
2019-04-07T07:41:03.619Z,40.33
2019-04-07T07:43:34.974Z,39.91
2019-04-07T07:46:06.809Z,39.77
2019-04-07T07:48:37.925Z,40.02
2019-04-07T07:51:12.866Z,39.44
2019-04-07T07:53:42.698Z,39.12
2019-04-07T07:56:14.383Z,39.38
2019-04-07T07:58:46.084Z,39.57
2019-04-07T08:01:17.915Z,40.38
2019-04-07T08:03:51.715Z,40.01
2019-04-07T08:06:22.533Z,41.07
2019-04-07T08:08:53.729Z,42.80
2019-04-07T08:11:25.676Z,43.06
2019-04-07T08:13:58.130Z,43.57
2019-04-07T08:16:31.076Z,43.72
2019-04-07T08:19:02.802Z,44.41
2019-04-07T08:21:34.811Z,44.38
2019-04-07T08:24:05.887Z,44.60
2019-04-07T08:26:36.897Z,45.18
2019-04-07T08:29:08.758Z,45.10
2019-04-07T08:31:39.913Z,45.29
2019-04-07T08:34:11.033Z,45.28
2019-04-07T08:36:44.479Z,44.75
2019-04-07T08:39:22.984Z,44.62
2019-04-07T08:41:48.439Z,44.53
2019-04-07T08:44:19.455Z,44.59
2019-04-07T08:46:50.833Z,43.12
2019-04-07T08:49:24.160Z,42.43
2019-04-07T08:51:56.097Z,41.69
2019-04-07T08:54:27.637Z,41.41
2019-04-07T08:56:59.182Z,40.91
2019-04-07T08:59:30.342Z,41.15
2019-04-07T09:02:01.961Z,41.33
2019-04-07T09:04:32.984Z,41.22
2019-04-07T09:07:05.202Z,41.62
2019-04-07T09:09:40.381Z,41.86
2019-04-07T09:12:10.375Z,41.55
2019-04-07T09:14:41.948Z,40.76
2019-04-07T09:17:14.912Z,40.50
2019-04-07T09:19:47.698Z,40.47
2019-04-07T09:22:29.718Z,39.68
2019-04-07T09:25:06.266Z,39.41
2019-04-07T09:27:46.039Z,39.31
2019-04-07T09:30:30.839Z,38.02
2019-04-07T09:33:03.449Z,37.33
2019-04-07T09:35:48.672Z,37.39
2019-04-07T09:38:24.963Z,37.83
2019-04-07T09:40:57.227Z,37.36
2019-04-07T09:43:33.467Z,37.66
2019-04-07T09:46:09.333Z,37.39
2019-04-07T09:48:56.670Z,38.09
2019-04-07T09:51:46.218Z,38.24
2019-04-07T09:54:37.871Z,38.09
2019-04-07T09:57:16.864Z,38.20
2019-04-07T09:59:52.491Z,38.03
2019-04-07T10:02:33.577Z,38.09
2019-04-07T10:05:21.576Z,37.89
2019-04-07T10:08:07.160Z,37.22
2019-04-07T10:10:56.047Z,38.08
2019-04-07T10:13:31.782Z,37.36
2019-04-07T10:16:10.502Z,36.96
2019-04-07T10:18:42.929Z,37.35
2019-04-07T10:21:19.622Z,37.34
2019-04-07T10:24:08.780Z,36.79
2019-04-07T10:26:57.688Z,36.87
2019-04-07T10:29:34.051Z,36.60
2019-04-07T10:32:15.782Z,37.14
2019-04-07T10:35:01.050Z,37.41
2019-04-07T10:37:34.427Z,37.51
2019-04-07T10:40:25.467Z,38.25
2019-04-07T10:43:00.943Z,38.23
2019-04-07T10:45:45.920Z,37.23
2019-04-07T10:48:24.289Z,36.69
2019-04-07T10:51:07.915Z,36.90
2019-04-07T10:53:51.456Z,36.10
2019-04-07T10:56:30.830Z,35.64
2019-04-07T10:59:05.531Z,35.70
2019-04-07T11:01:44.481Z,35.52
2019-04-07T11:04:19.765Z,36.42
2019-04-07T11:06:52.387Z,36.65
2019-04-07T11:09:28.381Z,36.32
2019-04-07T11:12:16.185Z,36.50
2019-04-07T11:15:07.143Z,36.12
2019-04-07T11:17:39.659Z,37.44
2019-04-07T11:20:13.235Z,38.31
2019-04-07T11:23:04.407Z,37.82
2019-04-07T11:25:41.216Z,37.78
2019-04-07T11:28:29.166Z,38.51
2019-04-07T11:31:05.676Z,38.20
2019-04-07T11:33:50.504Z,38.08
2019-04-07T11:36:38.573Z,38.37
2019-04-07T11:39:14.060Z,37.81
2019-04-07T11:41:55.789Z,38.04
2019-04-07T11:44:31.277Z,37.95
2019-04-07T11:47:06.883Z,38.06
2019-04-07T11:49:58.194Z,37.80
2019-04-07T11:52:31.009Z,37.41
2019-04-07T11:55:03.575Z,37.46
2019-04-07T11:57:36.158Z,37.79
2019-04-07T12:00:26.967Z,38.01
2019-04-07T12:03:03.968Z,37.65
2019-04-07T12:05:52.576Z,37.43
2019-04-07T12:08:35.081Z,37.75
2019-04-07T12:11:14.867Z,38.18
2019-04-07T12:14:00.847Z,36.93
2019-04-07T12:16:38.016Z,36.93
2019-04-07T12:19:14.453Z,37.82
2019-04-07T12:21:53.232Z,37.98
2019-04-07T12:24:42.217Z,38.24
2019-04-07T12:27:21.676Z,37.88
2019-04-07T12:29:55.040Z,37.84
2019-04-07T12:32:27.600Z,37.02
2019-04-07T12:35:04.230Z,37.16
2019-04-07T12:37:48.909Z,36.96
2019-04-07T12:40:22.899Z,37.26
2019-04-07T12:42:59.240Z,36.42
2019-04-07T12:45:31.971Z,36.92
2019-04-07T12:48:06.305Z,36.73
2019-04-07T12:50:39.784Z,37.43
2019-04-07T12:53:25.149Z,37.27
2019-04-07T12:56:13.395Z,36.74
2019-04-07T12:59:02.279Z,36.89
2019-04-07T13:01:34.863Z,37.20
2019-04-07T13:04:26.444Z,37.14
2019-04-07T13:07:08.941Z,36.77
2019-04-07T13:10:00.295Z,37.14
2019-04-07T13:12:30.949Z,37.42
2019-04-07T13:15:08.541Z,37.23
2019-04-07T13:17:43.496Z,37.31
2019-04-07T13:20:32.174Z,37.50
2019-04-07T13:23:23.830Z,37.59
2019-04-07T13:26:03.386Z,37.59
2019-04-07T13:28:39.080Z,37.90
2019-04-07T13:31:27.585Z,37.60
2019-04-07T13:34:01.936Z,37.89
2019-04-07T13:36:53.296Z,38.08
2019-04-07T13:39:45.228Z,37.71
2019-04-07T13:42:23.042Z,38.08
2019-04-07T13:45:11.835Z,38.81
2019-04-07T13:47:57.731Z,38.41
2019-04-07T13:50:46.917Z,38.84
2019-04-07T13:53:36.713Z,39.10
2019-04-07T13:56:17.618Z,39.11
2019-04-07T13:58:53.365Z,39.02
2019-04-07T14:01:26.769Z,39.17
2019-04-07T14:04:00.093Z,39.03
2019-04-07T14:06:36.209Z,39.03
2019-04-07T14:09:21.162Z,38.71
2019-04-07T14:12:10.479Z,39.05
2019-04-07T14:14:57.942Z,39.65
2019-04-07T14:17:30.850Z,40.19
2019-04-07T14:20:16.129Z,40.27
2019-04-07T14:22:48.774Z,40.62
2019-04-07T14:25:41.872Z,40.56
2019-04-07T14:28:14.361Z,40.90
2019-04-07T14:30:53.335Z,40.09
2019-04-07T14:33:30.710Z,40.06
2019-04-07T14:36:07.325Z,40.10
2019-04-07T14:38:56.324Z,40.35
2019-04-07T14:41:43.967Z,40.11
2019-04-07T14:44:16.646Z,40.19
2019-04-07T14:47:04.103Z,39.92
2019-04-07T14:49:39.408Z,41.05
2019-04-07T14:52:11.963Z,40.59
2019-04-07T14:55:01.449Z,40.99
2019-04-07T14:57:41.530Z,40.85
2019-04-07T15:00:26.948Z,41.25
2019-04-07T15:02:57.909Z,41.65
2019-04-07T15:05:34.135Z,41.29
2019-04-07T15:08:16.308Z,41.85
2019-04-07T15:10:50.094Z,42.93
2019-04-07T15:13:25.765Z,42.71
2019-04-07T15:16:00.587Z,42.82
2019-04-07T15:18:32.026Z,43.23
2019-04-07T15:21:04.625Z,43.22
2019-04-07T15:23:35.700Z,43.11
2019-04-07T15:26:06.771Z,43.48
2019-04-07T15:28:38.446Z,43.24
2019-04-07T15:31:10.562Z,43.06
2019-04-07T15:33:42.384Z,43.35
2019-04-07T15:36:17.378Z,43.56
2019-04-07T15:38:46.410Z,43.94
2019-04-07T15:41:19.053Z,44.28
2019-04-07T15:43:50.218Z,44.06
2019-04-07T15:46:22.514Z,44.20
2019-04-07T15:48:55.736Z,44.07
2019-04-07T15:51:26.408Z,44.31
2019-04-07T15:53:57.422Z,44.91
2019-04-07T15:56:28.462Z,44.96
2019-04-07T15:59:01.994Z,45.39
2019-04-07T16:01:33.738Z,45.08
2019-04-07T16:04:14.741Z,44.89
2019-04-07T16:06:48.130Z,44.64
2019-04-07T16:09:33.271Z,44.69
2019-04-07T16:12:14.530Z,44.63
2019-04-07T16:14:48.039Z,44.53
2019-04-07T16:17:21.106Z,44.50
2019-04-07T16:19:54.441Z,44.55
2019-04-07T16:22:25.690Z,44.87
2019-04-07T16:24:57.286Z,44.84
2019-04-07T16:27:28.333Z,44.96
2019-04-07T16:29:59.233Z,45.11
2019-04-07T16:32:31.011Z,45.23
2019-04-07T16:35:02.045Z,45.38
2019-04-07T16:37:33.591Z,45.65
2019-04-07T16:40:10.416Z,45.80
2019-04-07T16:42:39.341Z,45.97
2019-04-07T16:45:13.750Z,45.79
2019-04-07T16:47:44.018Z,45.96
2019-04-07T16:50:18.110Z,46.11
2019-04-07T16:52:48.418Z,46.31
2019-04-07T16:55:34.880Z,46.39
2019-04-07T16:58:06.692Z,46.52
2019-04-07T17:00:38.399Z,47.01
2019-04-07T17:03:10.045Z,46.79
2019-04-07T17:05:41.193Z,46.88
2019-04-07T17:08:12.849Z,46.92
2019-04-07T17:10:43.971Z,47.17
2019-04-07T17:13:20.539Z,47.25
2019-04-07T17:15:48.065Z,47.38
2019-04-07T17:18:41.105Z,47.71
2019-04-07T17:21:16.551Z,47.71
2019-04-07T17:23:53.165Z,48.00
2019-04-07T17:26:23.533Z,48.25
2019-04-07T17:28:56.714Z,48.40
2019-04-07T17:31:28.078Z,48.53
2019-04-07T17:34:03.950Z,48.79
2019-04-07T17:36:34.345Z,49.20
2019-04-07T17:39:22.808Z,49.69
2019-04-07T17:41:55.303Z,49.77
2019-04-07T17:44:28.624Z,50.20
2019-04-07T17:47:13.711Z,51.09
2019-04-07T17:50:05.568Z,51.68
2019-04-07T17:52:41.662Z,51.85
2019-04-07T17:55:18.736Z,52.05
2019-04-07T17:57:57.588Z,53.15
2019-04-07T18:00:36.307Z,54.21
2019-04-07T18:03:11.954Z,55.75
2019-04-07T18:05:46.099Z,56.29
2019-04-07T18:08:28.318Z,56.80
2019-04-07T18:11:01.064Z,57.33
2019-04-07T18:13:45.025Z,57.39
2019-04-07T18:16:15.063Z,57.73
2019-04-07T18:18:47.681Z,57.62
2019-04-07T18:21:21.134Z,57.50
2019-04-07T18:24:01.376Z,57.26
2019-04-07T18:26:40.484Z,57.00
2019-04-07T18:29:14.917Z,56.69
2019-04-07T18:31:47.535Z,56.64
2019-04-07T18:34:27.465Z,56.48
2019-04-07T18:37:18.760Z,56.35
2019-04-07T18:40:03.399Z,55.99
2019-04-07T18:42:54.368Z,55.95
2019-04-07T18:45:32.753Z,55.70
2019-04-07T18:48:22.755Z,56.04
2019-04-07T18:51:13.252Z,56.22
2019-04-07T18:54:04.170Z,56.04
2019-04-07T18:56:41.682Z,56.60
2019-04-07T18:59:23.486Z,57.14
2019-04-07T19:02:14.872Z,57.38
2019-04-07T19:04:51.224Z,57.51
2019-04-07T19:07:27.282Z,57.52
2019-04-07T19:10:08.698Z,57.49
2019-04-07T19:12:41.028Z,57.50
2019-04-07T19:15:13.978Z,57.64
2019-04-07T19:18:09.882Z,57.84
2019-04-07T19:21:14.045Z,57.97
2019-04-07T19:24:10.684Z,57.94
2019-04-07T19:26:54.644Z,57.99
2019-04-07T19:29:46.219Z,58.16
2019-04-07T19:32:20.859Z,58.25
2019-04-07T19:35:11.511Z,58.41
2019-04-07T19:37:50.667Z,58.50
2019-04-07T19:40:32.369Z,58.61
2019-04-07T19:43:18.062Z,58.68
2019-04-07T19:45:55.145Z,58.63
2019-04-07T19:48:31.088Z,58.67
2019-04-07T19:51:03.843Z,58.80
2019-04-07T19:53:55.706Z,58.90
2019-04-07T19:56:35.144Z,59.01
2019-04-07T19:59:14.574Z,59.04
2019-04-07T20:01:50.362Z,59.17
2019-04-07T20:04:32.733Z,59.13
2019-04-07T20:07:17.948Z,59.36
2019-04-07T20:10:03.101Z,59.33
2019-04-07T20:12:47.932Z,59.40
2019-04-07T20:15:43.140Z,59.43
2019-04-07T20:18:34.110Z,59.43
2019-04-07T20:21:08.506Z,59.46
2019-04-07T20:23:43.994Z,59.49
2019-04-07T20:26:22.092Z,59.58
2019-04-07T20:29:06.541Z,59.61
2019-04-07T20:31:40.813Z,59.83
2019-04-07T20:34:19.319Z,59.87
2019-04-07T20:37:08.147Z,60.30
2019-04-07T20:39:41.254Z,60.71
2019-04-07T20:42:31.089Z,60.59
2019-04-07T20:45:14.216Z,60.44
2019-04-07T20:47:44.657Z,60.58
2019-04-07T20:50:20.188Z,60.72
2019-04-07T20:53:10.083Z,60.74
2019-04-07T20:55:45.266Z,60.76
2019-04-07T20:58:48.725Z,60.83
2019-04-07T21:01:44.559Z,61.17
2019-04-07T21:07:35.424Z,61.13
2019-04-07T21:10:11.188Z,61.22
2019-04-07T21:12:45.505Z,61.31
2019-04-07T21:15:30.379Z,61.47
2019-04-07T21:18:15.978Z,61.61
2019-04-07T21:21:11.937Z,61.55
2019-04-07T21:23:59.568Z,61.61
2019-04-07T21:26:48.362Z,61.32
2019-04-07T21:29:28.104Z,61.26
2019-04-07T21:32:18.983Z,61.17
2019-04-07T21:35:08.683Z,61.06
2019-04-07T21:37:51.909Z,61.02
2019-04-07T21:40:39.563Z,60.93
2019-04-07T21:43:20.083Z,60.92
2019-04-07T21:45:54.448Z,60.78
2019-04-07T21:48:44.232Z,60.58
2019-04-07T21:51:33.395Z,60.56
2019-04-07T21:54:07.722Z,60.49
2019-04-07T21:56:46.123Z,60.35
2019-04-07T21:59:37.441Z,60.39
2019-04-07T22:02:19.453Z,60.29
2019-04-07T22:05:18.094Z,60.32
2019-04-07T22:07:53.822Z,60.35
2019-04-07T22:10:25.682Z,60.29
2019-04-07T22:13:00.702Z,60.36
2019-04-07T22:15:42.124Z,60.43
2019-04-07T22:18:06.290Z,60.44
2019-04-07T22:20:34.972Z,60.69
2019-04-07T22:23:09.304Z,61.03
2019-04-07T22:25:52.341Z,60.98
2019-04-07T22:28:27.650Z,61.14
2019-04-07T22:30:57.275Z,61.23
2019-04-07T22:33:30.901Z,61.36
2019-04-07T22:36:01.771Z,61.35
2019-04-07T22:38:33.639Z,61.23
2019-04-07T22:41:06.701Z,61.32
2019-04-07T22:43:37.499Z,61.31
2019-04-07T22:46:17.555Z,61.27
2019-04-07T22:48:41.798Z,61.27
2019-04-07T22:51:13.782Z,61.23
2019-04-07T22:53:45.549Z,61.30
2019-04-07T22:56:18.102Z,61.41
2019-04-07T22:58:52.004Z,61.40
2019-04-07T23:01:23.126Z,61.88
2019-04-07T23:03:54.779Z,61.91
2019-04-07T23:06:26.630Z,62.29
2019-04-07T23:08:57.634Z,63.07
2019-04-07T23:11:29.970Z,62.72
2019-04-07T23:14:01.125Z,62.67
2019-04-07T23:16:36.003Z,62.73
2019-04-07T23:19:07.566Z,62.64
2019-04-07T23:21:39.705Z,62.56
2019-04-07T23:24:11.480Z,62.53
2019-04-07T23:26:42.622Z,62.53
2019-04-07T23:29:22.167Z,62.69
2019-04-07T23:31:57.633Z,62.68
2019-04-07T23:34:36.670Z,62.73
2019-04-07T23:37:12.359Z,62.68
2019-04-07T23:39:44.137Z,62.82
2019-04-07T23:42:15.743Z,62.80
2019-04-07T23:44:58.656Z,62.86
2019-04-07T23:47:37.111Z,63.13
2019-04-07T23:50:09.141Z,63.08
2019-04-07T23:52:41.151Z,63.15
2019-04-07T23:55:12.912Z,63.10
2019-04-07T23:57:44.982Z,63.18
